sensor_id;sensor_type;location;lat;lon;timestamp;temperature;humidity
15638;DHT22;26604;53.596;10.042;2023-05-10T00:00:48;13.10;99.90
15638;DHT22;26604;53.596;10.042;2023-05-10T00:03:15;13.20;99.90
15638;DHT22;26604;53.596;10.042;2023-05-10T00:05:41;13.20;99.90
15638;DHT22;26604;53.596;10.042;2023-05-10T00:08:08;13.30;99.90
15638;DHT22;26604;53.596;10.042;2023-05-10T00:10:35;13.20;99.90
15638;DHT22;26604;53.596;10.042;2023-05-10T00:13:03;13.10;99.90
15638;DHT22;26604;53.596;10.042;2023-05-10T00:15:30;13.10;99.90
15638;DHT22;26604;53.596;10.042;2023-05-10T00:17:58;13.00;99.90
15638;DHT22;26604;53.596;10.042;2023-05-10T00:20:25;13.00;99.90
15638;DHT22;26604;53.596;10.042;2023-05-10T00:22:52;12.90;99.90
15638;DHT22;26604;53.596;10.042;2023-05-10T00:25:19;12.90;99.90
15638;DHT22;26604;53.596;10.042;2023-05-10T00:27:47;12.80;99.90
15638;DHT22;26604;53.596;10.042;2023-05-10T00:30:13;12.80;99.90
15638;DHT22;26604;53.596;10.042;2023-05-10T00:32:40;12.80;99.90
15638;DHT22;26604;53.596;10.042;2023-05-10T00:35:10;12.80;99.90
15638;DHT22;26604;53.596;10.042;2023-05-10T00:37:37;12.70;99.90
15638;DHT22;26604;53.596;10.042;2023-05-10T00:40:05;12.70;99.90
15638;DHT22;26604;53.596;10.042;2023-05-10T00:42:32;12.70;99.90
15638;DHT22;26604;53.596;10.042;2023-05-10T00:44:59;12.70;99.90
15638;DHT22;26604;53.596;10.042;2023-05-10T00:47:26;12.70;99.90
15638;DHT22;26604;53.596;10.042;2023-05-10T00:49:53;12.60;99.90
15638;DHT22;26604;53.596;10.042;2023-05-10T00:52:22;12.60;99.90
15638;DHT22;26604;53.596;10.042;2023-05-10T00:54:50;12.50;99.90
15638;DHT22;26604;53.596;10.042;2023-05-10T00:57:18;12.50;99.90
15638;DHT22;26604;53.596;10.042;2023-05-10T00:59:45;12.50;99.90
15638;DHT22;26604;53.596;10.042;2023-05-10T01:02:12;12.40;99.90
15638;DHT22;26604;53.596;10.042;2023-05-10T01:04:39;12.40;99.90
15638;DHT22;26604;53.596;10.042;2023-05-10T01:07:07;12.40;99.90
15638;DHT22;26604;53.596;10.042;2023-05-10T01:09:35;12.40;99.90
15638;DHT22;26604;53.596;10.042;2023-05-10T01:12:02;12.40;99.90
15638;DHT22;26604;53.596;10.042;2023-05-10T01:14:32;12.40;99.90
15638;DHT22;26604;53.596;10.042;2023-05-10T01:17:00;12.40;99.90
15638;DHT22;26604;53.596;10.042;2023-05-10T01:19:29;12.30;99.90
15638;DHT22;26604;53.596;10.042;2023-05-10T01:22:03;12.30;99.90
15638;DHT22;26604;53.596;10.042;2023-05-10T01:25:03;12.30;99.90
15638;DHT22;26604;53.596;10.042;2023-05-10T01:27:53;12.30;99.90
15638;DHT22;26604;53.596;10.042;2023-05-10T01:30:50;12.30;99.90
15638;DHT22;26604;53.596;10.042;2023-05-10T01:33:25;12.20;99.90
15638;DHT22;26604;53.596;10.042;2023-05-10T01:36:00;12.10;99.90
15638;DHT22;26604;53.596;10.042;2023-05-10T01:38:33;12.00;99.90
15638;DHT22;26604;53.596;10.042;2023-05-10T01:41:09;12.10;99.90
15638;DHT22;26604;53.596;10.042;2023-05-10T01:43:42;12.00;99.90
15638;DHT22;26604;53.596;10.042;2023-05-10T01:46:16;12.00;99.90
15638;DHT22;26604;53.596;10.042;2023-05-10T01:48:48;11.90;99.90
15638;DHT22;26604;53.596;10.042;2023-05-10T01:51:31;12.00;99.90
15638;DHT22;26604;53.596;10.042;2023-05-10T01:54:02;11.90;99.90
15638;DHT22;26604;53.596;10.042;2023-05-10T01:56:31;12.00;99.90
15638;DHT22;26604;53.596;10.042;2023-05-10T01:59:01;12.00;99.90
15638;DHT22;26604;53.596;10.042;2023-05-10T02:01:33;12.00;99.90
15638;DHT22;26604;53.596;10.042;2023-05-10T02:04:06;11.90;99.90
15638;DHT22;26604;53.596;10.042;2023-05-10T02:06:34;11.80;99.90
15638;DHT22;26604;53.596;10.042;2023-05-10T02:09:01;11.80;99.90
15638;DHT22;26604;53.596;10.042;2023-05-10T02:11:29;11.70;99.90
15638;DHT22;26604;53.596;10.042;2023-05-10T02:13:58;11.70;99.90
15638;DHT22;26604;53.596;10.042;2023-05-10T02:16:26;11.70;99.90
15638;DHT22;26604;53.596;10.042;2023-05-10T02:18:57;11.70;99.90
15638;DHT22;26604;53.596;10.042;2023-05-10T02:21:26;11.60;99.90
15638;DHT22;26604;53.596;10.042;2023-05-10T02:23:57;11.60;99.90
15638;DHT22;26604;53.596;10.042;2023-05-10T02:26:25;11.60;99.90
15638;DHT22;26604;53.596;10.042;2023-05-10T02:28:53;11.50;99.90
15638;DHT22;26604;53.596;10.042;2023-05-10T02:31:20;11.40;99.90
15638;DHT22;26604;53.596;10.042;2023-05-10T02:33:49;11.40;99.90
15638;DHT22;26604;53.596;10.042;2023-05-10T02:36:18;11.40;99.90
15638;DHT22;26604;53.596;10.042;2023-05-10T02:38:50;11.40;99.90
15638;DHT22;26604;53.596;10.042;2023-05-10T02:41:18;11.30;99.90
15638;DHT22;26604;53.596;10.042;2023-05-10T02:43:47;11.30;99.90
15638;DHT22;26604;53.596;10.042;2023-05-10T02:46:16;11.30;99.90
15638;DHT22;26604;53.596;10.042;2023-05-10T02:48:43;11.20;99.90
15638;DHT22;26604;53.596;10.042;2023-05-10T02:51:12;11.20;99.90
15638;DHT22;26604;53.596;10.042;2023-05-10T02:53:44;11.20;99.90
15638;DHT22;26604;53.596;10.042;2023-05-10T02:56:16;11.10;99.90
15638;DHT22;26604;53.596;10.042;2023-05-10T02:58:46;11.10;99.90
15638;DHT22;26604;53.596;10.042;2023-05-10T03:01:13;11.00;99.90
15638;DHT22;26604;53.596;10.042;2023-05-10T03:03:41;11.00;99.90
15638;DHT22;26604;53.596;10.042;2023-05-10T03:06:08;10.90;99.90
15638;DHT22;26604;53.596;10.042;2023-05-10T03:08:35;10.90;99.90
15638;DHT22;26604;53.596;10.042;2023-05-10T03:11:15;10.80;99.90
15638;DHT22;26604;53.596;10.042;2023-05-10T03:13:48;10.80;99.90
15638;DHT22;26604;53.596;10.042;2023-05-10T03:16:21;10.90;99.90
15638;DHT22;26604;53.596;10.042;2023-05-10T03:18:56;10.90;99.90
15638;DHT22;26604;53.596;10.042;2023-05-10T03:21:26;11.00;99.90
15638;DHT22;26604;53.596;10.042;2023-05-10T03:23:59;11.00;99.90
15638;DHT22;26604;53.596;10.042;2023-05-10T03:26:30;11.00;99.90
15638;DHT22;26604;53.596;10.042;2023-05-10T03:28:57;11.00;99.90
15638;DHT22;26604;53.596;10.042;2023-05-10T03:31:25;11.00;99.90
15638;DHT22;26604;53.596;10.042;2023-05-10T03:33:52;11.00;99.90
15638;DHT22;26604;53.596;10.042;2023-05-10T03:36:19;11.10;99.90
15638;DHT22;26604;53.596;10.042;2023-05-10T03:38:46;11.00;99.90
15638;DHT22;26604;53.596;10.042;2023-05-10T03:41:13;11.00;99.90
15638;DHT22;26604;53.596;10.042;2023-05-10T03:43:41;11.10;99.90
15638;DHT22;26604;53.596;10.042;2023-05-10T03:46:08;11.10;99.90
15638;DHT22;26604;53.596;10.042;2023-05-10T03:48:35;11.20;99.90
15638;DHT22;26604;53.596;10.042;2023-05-10T03:51:02;11.20;99.90
15638;DHT22;26604;53.596;10.042;2023-05-10T03:53:29;11.20;99.90
15638;DHT22;26604;53.596;10.042;2023-05-10T03:55:56;11.20;99.90
15638;DHT22;26604;53.596;10.042;2023-05-10T03:58:22;11.30;99.90
15638;DHT22;26604;53.596;10.042;2023-05-10T04:00:51;11.40;99.90
15638;DHT22;26604;53.596;10.042;2023-05-10T04:03:18;11.50;99.90
15638;DHT22;26604;53.596;10.042;2023-05-10T04:05:45;11.50;99.90
15638;DHT22;26604;53.596;10.042;2023-05-10T04:08:12;11.60;99.90
15638;DHT22;26604;53.596;10.042;2023-05-10T04:10:40;11.70;99.90
15638;DHT22;26604;53.596;10.042;2023-05-10T04:13:07;11.70;99.90
15638;DHT22;26604;53.596;10.042;2023-05-10T04:15:33;11.70;99.90
15638;DHT22;26604;53.596;10.042;2023-05-10T04:18:02;11.90;99.90
15638;DHT22;26604;53.596;10.042;2023-05-10T04:20:29;11.90;99.90
15638;DHT22;26604;53.596;10.042;2023-05-10T04:22:56;12.00;99.90
15638;DHT22;26604;53.596;10.042;2023-05-10T04:25:22;12.10;99.90
15638;DHT22;26604;53.596;10.042;2023-05-10T04:27:49;12.10;99.90
15638;DHT22;26604;53.596;10.042;2023-05-10T04:30:16;12.20;99.90
15638;DHT22;26604;53.596;10.042;2023-05-10T04:32:43;12.20;99.90
15638;DHT22;26604;53.596;10.042;2023-05-10T04:35:12;12.30;99.90
15638;DHT22;26604;53.596;10.042;2023-05-10T04:37:40;12.30;99.90
15638;DHT22;26604;53.596;10.042;2023-05-10T04:40:08;12.40;99.90
15638;DHT22;26604;53.596;10.042;2023-05-10T04:42:35;12.50;99.90
15638;DHT22;26604;53.596;10.042;2023-05-10T04:45:02;12.50;99.90
15638;DHT22;26604;53.596;10.042;2023-05-10T04:47:29;12.60;99.90
15638;DHT22;26604;53.596;10.042;2023-05-10T04:49:55;12.70;99.90
15638;DHT22;26604;53.596;10.042;2023-05-10T04:52:24;12.70;99.90
15638;DHT22;26604;53.596;10.042;2023-05-10T04:54:51;12.80;99.90
15638;DHT22;26604;53.596;10.042;2023-05-10T04:57:18;12.90;99.90
15638;DHT22;26604;53.596;10.042;2023-05-10T04:59:45;13.00;99.90
15638;DHT22;26604;53.596;10.042;2023-05-10T05:02:13;13.10;99.90
15638;DHT22;26604;53.596;10.042;2023-05-10T05:04:41;13.20;99.90
15638;DHT22;26604;53.596;10.042;2023-05-10T05:07:07;13.30;99.90
15638;DHT22;26604;53.596;10.042;2023-05-10T05:09:36;13.50;99.90
15638;DHT22;26604;53.596;10.042;2023-05-10T05:12:03;13.60;99.90
15638;DHT22;26604;53.596;10.042;2023-05-10T05:14:30;13.70;99.90
15638;DHT22;26604;53.596;10.042;2023-05-10T05:16:57;13.80;99.90
15638;DHT22;26604;53.596;10.042;2023-05-10T05:19:23;13.90;99.90
15638;DHT22;26604;53.596;10.042;2023-05-10T05:21:50;14.10;99.90
15638;DHT22;26604;53.596;10.042;2023-05-10T05:24:17;14.10;99.90
15638;DHT22;26604;53.596;10.042;2023-05-10T05:26:45;14.30;99.90
15638;DHT22;26604;53.596;10.042;2023-05-10T05:29:12;14.40;99.90
15638;DHT22;26604;53.596;10.042;2023-05-10T05:31:39;14.40;99.90
15638;DHT22;26604;53.596;10.042;2023-05-10T05:34:06;14.50;99.90
15638;DHT22;26604;53.596;10.042;2023-05-10T05:36:36;14.60;99.90
15638;DHT22;26604;53.596;10.042;2023-05-10T05:39:03;14.70;99.90
15638;DHT22;26604;53.596;10.042;2023-05-10T05:41:30;14.90;99.90
15638;DHT22;26604;53.596;10.042;2023-05-10T05:43:58;15.00;99.90
15638;DHT22;26604;53.596;10.042;2023-05-10T05:46:25;15.10;99.90
15638;DHT22;26604;53.596;10.042;2023-05-10T05:48:52;15.30;99.90
15638;DHT22;26604;53.596;10.042;2023-05-10T05:51:19;15.40;99.90
15638;DHT22;26604;53.596;10.042;2023-05-10T05:53:46;15.60;99.90
15638;DHT22;26604;53.596;10.042;2023-05-10T05:56:12;15.60;99.90
15638;DHT22;26604;53.596;10.042;2023-05-10T05:58:39;15.80;99.90
15638;DHT22;26604;53.596;10.042;2023-05-10T06:01:08;15.90;99.90
15638;DHT22;26604;53.596;10.042;2023-05-10T06:03:35;16.00;99.90
15638;DHT22;26604;53.596;10.042;2023-05-10T06:06:01;16.10;99.90
15638;DHT22;26604;53.596;10.042;2023-05-10T06:08:28;16.20;99.90
15638;DHT22;26604;53.596;10.042;2023-05-10T06:10:55;16.30;99.90
15638;DHT22;26604;53.596;10.042;2023-05-10T06:13:22;16.50;99.90
15638;DHT22;26604;53.596;10.042;2023-05-10T06:15:49;16.70;99.90
15638;DHT22;26604;53.596;10.042;2023-05-10T06:18:17;16.80;99.90
15638;DHT22;26604;53.596;10.042;2023-05-10T06:20:44;17.00;99.90
15638;DHT22;26604;53.596;10.042;2023-05-10T06:23:11;17.10;99.90
15638;DHT22;26604;53.596;10.042;2023-05-10T06:25:38;17.30;99.90
15638;DHT22;26604;53.596;10.042;2023-05-10T06:28:05;17.40;99.90
15638;DHT22;26604;53.596;10.042;2023-05-10T06:30:32;17.50;99.90
15638;DHT22;26604;53.596;10.042;2023-05-10T06:32:59;17.60;99.90
15638;DHT22;26604;53.596;10.042;2023-05-10T06:35:28;17.60;99.50
15638;DHT22;26604;53.596;10.042;2023-05-10T06:37:55;17.60;98.70
15638;DHT22;26604;53.596;10.042;2023-05-10T06:40:22;17.70;98.50
15638;DHT22;26604;53.596;10.042;2023-05-10T06:42:49;17.70;98.20
15638;DHT22;26604;53.596;10.042;2023-05-10T06:45:15;17.80;97.80
15638;DHT22;26604;53.596;10.042;2023-05-10T06:47:42;17.90;97.50
15638;DHT22;26604;53.596;10.042;2023-05-10T06:50:10;18.00;97.20
15638;DHT22;26604;53.596;10.042;2023-05-10T06:52:39;18.00;96.80
15638;DHT22;26604;53.596;10.042;2023-05-10T06:55:06;18.00;96.90
15638;DHT22;26604;53.596;10.042;2023-05-10T06:57:33;18.10;96.90
15638;DHT22;26604;53.596;10.042;2023-05-10T07:00:01;18.10;96.50
15638;DHT22;26604;53.596;10.042;2023-05-10T07:02:29;18.30;96.40
15638;DHT22;26604;53.596;10.042;2023-05-10T07:04:56;18.40;96.20
15638;DHT22;26604;53.596;10.042;2023-05-10T07:07:23;18.50;95.70
15638;DHT22;26604;53.596;10.042;2023-05-10T07:09:51;18.60;95.30
15638;DHT22;26604;53.596;10.042;2023-05-10T07:12:18;18.60;95.50
15638;DHT22;26604;53.596;10.042;2023-05-10T07:14:45;18.60;95.40
15638;DHT22;26604;53.596;10.042;2023-05-10T07:17:12;18.70;95.70
15638;DHT22;26604;53.596;10.042;2023-05-10T07:19:39;18.70;96.00
15638;DHT22;26604;53.596;10.042;2023-05-10T07:22:05;18.70;96.20
15638;DHT22;26604;53.596;10.042;2023-05-10T07:24:33;18.80;95.80
15638;DHT22;26604;53.596;10.042;2023-05-10T07:27:02;18.80;95.60
15638;DHT22;26604;53.596;10.042;2023-05-10T07:29:29;18.70;95.90
15638;DHT22;26604;53.596;10.042;2023-05-10T07:31:56;18.70;96.50
15638;DHT22;26604;53.596;10.042;2023-05-10T07:34:23;18.70;96.30
15638;DHT22;26604;53.596;10.042;2023-05-10T07:36:50;18.80;96.40
15638;DHT22;26604;53.596;10.042;2023-05-10T07:39:17;18.80;96.30
15638;DHT22;26604;53.596;10.042;2023-05-10T07:41:46;19.00;96.10
15638;DHT22;26604;53.596;10.042;2023-05-10T07:44:14;19.10;95.50
15638;DHT22;26604;53.596;10.042;2023-05-10T07:46:43;19.30;95.50
15638;DHT22;26604;53.596;10.042;2023-05-10T07:49:10;19.40;95.40
15638;DHT22;26604;53.596;10.042;2023-05-10T07:51:37;19.60;95.50
15638;DHT22;26604;53.596;10.042;2023-05-10T07:54:04;19.70;94.30
15638;DHT22;26604;53.596;10.042;2023-05-10T07:56:32;19.80;93.30
15638;DHT22;26604;53.596;10.042;2023-05-10T07:59:00;19.90;93.80
15638;DHT22;26604;53.596;10.042;2023-05-10T08:01:30;20.00;94.00
15638;DHT22;26604;53.596;10.042;2023-05-10T08:03:57;20.20;93.50
15638;DHT22;26604;53.596;10.042;2023-05-10T08:06:24;20.40;92.00
15638;DHT22;26604;53.596;10.042;2023-05-10T08:08:52;20.50;91.60
15638;DHT22;26604;53.596;10.042;2023-05-10T08:11:19;20.60;91.10
15638;DHT22;26604;53.596;10.042;2023-05-10T08:13:48;20.70;91.30
15638;DHT22;26604;53.596;10.042;2023-05-10T08:16:15;20.80;90.30
15638;DHT22;26604;53.596;10.042;2023-05-10T08:18:45;20.80;90.00
15638;DHT22;26604;53.596;10.042;2023-05-10T08:21:12;20.80;90.10
15638;DHT22;26604;53.596;10.042;2023-05-10T08:23:39;20.70;90.00
15638;DHT22;26604;53.596;10.042;2023-05-10T08:26:06;20.60;90.40
15638;DHT22;26604;53.596;10.042;2023-05-10T08:28:33;20.40;91.10
15638;DHT22;26604;53.596;10.042;2023-05-10T08:31:00;20.40;91.70
15638;DHT22;26604;53.596;10.042;2023-05-10T08:33:27;20.40;92.10
15638;DHT22;26604;53.596;10.042;2023-05-10T08:35:55;20.30;91.30
15638;DHT22;26604;53.596;10.042;2023-05-10T08:38:22;20.30;91.90
15638;DHT22;26604;53.596;10.042;2023-05-10T08:40:49;20.40;92.00
15638;DHT22;26604;53.596;10.042;2023-05-10T08:43:16;20.50;92.10
15638;DHT22;26604;53.596;10.042;2023-05-10T08:45:44;20.70;91.70
15638;DHT22;26604;53.596;10.042;2023-05-10T08:48:13;20.90;90.60
15638;DHT22;26604;53.596;10.042;2023-05-10T08:50:41;20.90;90.50
15638;DHT22;26604;53.596;10.042;2023-05-10T08:53:11;21.00;90.30
15638;DHT22;26604;53.596;10.042;2023-05-10T08:55:39;21.00;90.90
15638;DHT22;26604;53.596;10.042;2023-05-10T08:58:08;21.00;90.70
15638;DHT22;26604;53.596;10.042;2023-05-10T09:00:35;21.10;90.50
15638;DHT22;26604;53.596;10.042;2023-05-10T09:03:04;21.20;90.30
15638;DHT22;26604;53.596;10.042;2023-05-10T09:05:31;21.40;89.80
15638;DHT22;26604;53.596;10.042;2023-05-10T09:07:58;21.50;88.10
15638;DHT22;26604;53.596;10.042;2023-05-10T09:10:27;21.60;87.80
15638;DHT22;26604;53.596;10.042;2023-05-10T09:12:56;21.70;88.80
15638;DHT22;26604;53.596;10.042;2023-05-10T09:15:23;21.90;87.10
15638;DHT22;26604;53.596;10.042;2023-05-10T09:17:50;22.00;86.00
15638;DHT22;26604;53.596;10.042;2023-05-10T09:20:18;22.00;85.30
15638;DHT22;26604;53.596;10.042;2023-05-10T09:22:45;21.90;86.60
15638;DHT22;26604;53.596;10.042;2023-05-10T09:25:14;21.80;86.90
15638;DHT22;26604;53.596;10.042;2023-05-10T09:27:45;21.60;89.40
15638;DHT22;26604;53.596;10.042;2023-05-10T09:30:16;21.50;90.60
15638;DHT22;26604;53.596;10.042;2023-05-10T09:32:44;21.40;90.80
15638;DHT22;26604;53.596;10.042;2023-05-10T09:35:13;21.40;91.30
15638;DHT22;26604;53.596;10.042;2023-05-10T09:37:43;21.40;91.00
15638;DHT22;26604;53.596;10.042;2023-05-10T09:40:12;21.50;91.50
15638;DHT22;26604;53.596;10.042;2023-05-10T09:42:42;21.40;90.50
15638;DHT22;26604;53.596;10.042;2023-05-10T09:45:09;21.30;91.20
15638;DHT22;26604;53.596;10.042;2023-05-10T09:47:36;21.10;92.00
15638;DHT22;26604;53.596;10.042;2023-05-10T09:50:04;20.90;92.10
15638;DHT22;26604;53.596;10.042;2023-05-10T09:52:46;20.80;93.20
15638;DHT22;26604;53.596;10.042;2023-05-10T09:55:13;20.80;94.20
15638;DHT22;26604;53.596;10.042;2023-05-10T09:57:41;20.90;95.00
15638;DHT22;26604;53.596;10.042;2023-05-10T10:00:09;20.90;95.20
15638;DHT22;26604;53.596;10.042;2023-05-10T10:02:36;20.90;96.00
15638;DHT22;26604;53.596;10.042;2023-05-10T10:05:04;20.80;96.80
15638;DHT22;26604;53.596;10.042;2023-05-10T10:07:33;20.60;98.20
15638;DHT22;26604;53.596;10.042;2023-05-10T10:10:00;20.20;99.90
15638;DHT22;26604;53.596;10.042;2023-05-10T10:12:28;19.70;99.90
15638;DHT22;26604;53.596;10.042;2023-05-10T10:14:56;19.30;99.90
15638;DHT22;26604;53.596;10.042;2023-05-10T10:17:25;18.90;99.90
15638;DHT22;26604;53.596;10.042;2023-05-10T10:19:54;18.50;99.90
15638;DHT22;26604;53.596;10.042;2023-05-10T10:22:22;18.20;99.90
15638;DHT22;26604;53.596;10.042;2023-05-10T10:24:49;18.10;99.90
15638;DHT22;26604;53.596;10.042;2023-05-10T10:27:21;18.00;99.90
15638;DHT22;26604;53.596;10.042;2023-05-10T10:30:00;18.00;99.90
15638;DHT22;26604;53.596;10.042;2023-05-10T10:32:37;17.80;99.90
15638;DHT22;26604;53.596;10.042;2023-05-10T10:35:09;17.70;99.90
15638;DHT22;26604;53.596;10.042;2023-05-10T10:37:45;17.70;99.90
15638;DHT22;26604;53.596;10.042;2023-05-10T10:40:26;17.80;99.90
15638;DHT22;26604;53.596;10.042;2023-05-10T10:42:54;17.90;99.90
15638;DHT22;26604;53.596;10.042;2023-05-10T10:45:23;17.90;99.90
15638;DHT22;26604;53.596;10.042;2023-05-10T10:50:43;17.90;99.90
15638;DHT22;26604;53.596;10.042;2023-05-10T10:53:11;17.90;99.90
15638;DHT22;26604;53.596;10.042;2023-05-10T10:55:48;18.00;99.90
15638;DHT22;26604;53.596;10.042;2023-05-10T10:58:29;18.00;99.90
15638;DHT22;26604;53.596;10.042;2023-05-10T11:01:11;18.00;99.90
15638;DHT22;26604;53.596;10.042;2023-05-10T11:03:38;18.00;99.90
15638;DHT22;26604;53.596;10.042;2023-05-10T11:06:06;18.00;99.90
15638;DHT22;26604;53.596;10.042;2023-05-10T11:08:35;18.10;99.90
15638;DHT22;26604;53.596;10.042;2023-05-10T11:11:07;18.20;99.90
15638;DHT22;26604;53.596;10.042;2023-05-10T11:13:38;18.30;99.90
15638;DHT22;26604;53.596;10.042;2023-05-10T11:16:17;18.40;99.90
15638;DHT22;26604;53.596;10.042;2023-05-10T11:18:57;18.50;99.90
15638;DHT22;26604;53.596;10.042;2023-05-10T11:21:25;18.60;99.90
15638;DHT22;26604;53.596;10.042;2023-05-10T11:23:53;18.60;99.90
15638;DHT22;26604;53.596;10.042;2023-05-10T11:26:23;18.70;99.90
15638;DHT22;26604;53.596;10.042;2023-05-10T11:28:52;18.70;99.90
15638;DHT22;26604;53.596;10.042;2023-05-10T11:31:22;18.60;99.90
15638;DHT22;26604;53.596;10.042;2023-05-10T11:33:53;18.50;99.90
15638;DHT22;26604;53.596;10.042;2023-05-10T11:36:22;18.50;99.90
15638;DHT22;26604;53.596;10.042;2023-05-10T11:38:50;18.50;99.90
15638;DHT22;26604;53.596;10.042;2023-05-10T11:41:18;18.50;99.90
15638;DHT22;26604;53.596;10.042;2023-05-10T11:43:49;18.50;99.90
15638;DHT22;26604;53.596;10.042;2023-05-10T11:46:18;18.70;99.90
15638;DHT22;26604;53.596;10.042;2023-05-10T11:48:49;18.80;99.90
15638;DHT22;26604;53.596;10.042;2023-05-10T11:51:20;18.90;99.90
15638;DHT22;26604;53.596;10.042;2023-05-10T11:53:48;18.90;99.90
15638;DHT22;26604;53.596;10.042;2023-05-10T11:56:15;18.80;99.90
15638;DHT22;26604;53.596;10.042;2023-05-10T11:58:42;18.60;99.90
15638;DHT22;26604;53.596;10.042;2023-05-10T12:01:10;18.50;99.90
15638;DHT22;26604;53.596;10.042;2023-05-10T12:03:37;18.50;99.90
15638;DHT22;26604;53.596;10.042;2023-05-10T12:06:07;18.50;99.90
15638;DHT22;26604;53.596;10.042;2023-05-10T12:08:34;18.40;99.90
15638;DHT22;26604;53.596;10.042;2023-05-10T12:11:05;18.30;99.90
15638;DHT22;26604;53.596;10.042;2023-05-10T12:13:32;18.30;99.90
15638;DHT22;26604;53.596;10.042;2023-05-10T12:16:12;18.20;99.90
15638;DHT22;26604;53.596;10.042;2023-05-10T12:18:40;18.20;99.90
15638;DHT22;26604;53.596;10.042;2023-05-10T12:21:09;18.20;99.90
15638;DHT22;26604;53.596;10.042;2023-05-10T12:23:36;18.10;99.90
15638;DHT22;26604;53.596;10.042;2023-05-10T12:26:03;18.00;99.90
15638;DHT22;26604;53.596;10.042;2023-05-10T12:28:31;17.90;99.90
15638;DHT22;26604;53.596;10.042;2023-05-10T12:30:59;18.10;99.90
15638;DHT22;26604;53.596;10.042;2023-05-10T12:33:26;18.30;99.90
15638;DHT22;26604;53.596;10.042;2023-05-10T12:35:54;18.60;99.90
15638;DHT22;26604;53.596;10.042;2023-05-10T12:38:33;18.80;99.90
15638;DHT22;26604;53.596;10.042;2023-05-10T12:41:02;19.00;99.90
15638;DHT22;26604;53.596;10.042;2023-05-10T12:43:30;19.30;99.90
15638;DHT22;26604;53.596;10.042;2023-05-10T12:45:57;19.60;99.90
15638;DHT22;26604;53.596;10.042;2023-05-10T12:48:24;19.90;99.90
15638;DHT22;26604;53.596;10.042;2023-05-10T12:50:51;20.10;99.90
15638;DHT22;26604;53.596;10.042;2023-05-10T12:53:18;20.30;99.90
15638;DHT22;26604;53.596;10.042;2023-05-10T12:55:46;20.50;99.90
15638;DHT22;26604;53.596;10.042;2023-05-10T12:58:13;20.70;99.90
15638;DHT22;26604;53.596;10.042;2023-05-10T13:00:40;20.80;99.90
15638;DHT22;26604;53.596;10.042;2023-05-10T13:03:08;20.90;99.90
15638;DHT22;26604;53.596;10.042;2023-05-10T13:05:35;21.10;99.90
15638;DHT22;26604;53.596;10.042;2023-05-10T13:08:02;21.20;99.90
15638;DHT22;26604;53.596;10.042;2023-05-10T13:10:30;21.20;99.90
15638;DHT22;26604;53.596;10.042;2023-05-10T13:12:58;21.30;99.90
15638;DHT22;26604;53.596;10.042;2023-05-10T13:15:26;21.40;99.90
15638;DHT22;26604;53.596;10.042;2023-05-10T13:17:53;21.30;99.90
15638;DHT22;26604;53.596;10.042;2023-05-10T13:20:20;21.20;99.90
15638;DHT22;26604;53.596;10.042;2023-05-10T13:22:47;21.10;99.90
15638;DHT22;26604;53.596;10.042;2023-05-10T13:25:14;21.20;99.90
15638;DHT22;26604;53.596;10.042;2023-05-10T13:27:41;21.20;99.90
15638;DHT22;26604;53.596;10.042;2023-05-10T13:30:09;21.20;99.90
15638;DHT22;26604;53.596;10.042;2023-05-10T13:32:37;21.30;99.90
15638;DHT22;26604;53.596;10.042;2023-05-10T13:35:06;21.40;99.90
15638;DHT22;26604;53.596;10.042;2023-05-10T13:37:33;21.40;99.90
15638;DHT22;26604;53.596;10.042;2023-05-10T13:40:03;21.50;99.90
15638;DHT22;26604;53.596;10.042;2023-05-10T13:42:30;21.70;99.90
15638;DHT22;26604;53.596;10.042;2023-05-10T13:44:59;21.80;99.90
15638;DHT22;26604;53.596;10.042;2023-05-10T13:47:27;21.80;99.90
15638;DHT22;26604;53.596;10.042;2023-05-10T13:49:54;21.80;99.90
15638;DHT22;26604;53.596;10.042;2023-05-10T13:52:21;21.90;99.90
15638;DHT22;26604;53.596;10.042;2023-05-10T13:54:48;21.80;99.90
15638;DHT22;26604;53.596;10.042;2023-05-10T13:57:15;21.80;99.90
15638;DHT22;26604;53.596;10.042;2023-05-10T13:59:42;21.70;99.90
15638;DHT22;26604;53.596;10.042;2023-05-10T14:02:09;21.70;99.90
15638;DHT22;26604;53.596;10.042;2023-05-10T14:04:39;21.60;99.90
15638;DHT22;26604;53.596;10.042;2023-05-10T14:07:05;21.50;99.90
15638;DHT22;26604;53.596;10.042;2023-05-10T14:09:32;21.40;99.90
15638;DHT22;26604;53.596;10.042;2023-05-10T14:11:59;21.20;99.90
15638;DHT22;26604;53.596;10.042;2023-05-10T14:14:26;21.00;99.90
15638;DHT22;26604;53.596;10.042;2023-05-10T14:16:54;20.70;99.90
15638;DHT22;26604;53.596;10.042;2023-05-10T14:19:21;20.60;99.90
15638;DHT22;26604;53.596;10.042;2023-05-10T14:21:49;20.50;99.90
15638;DHT22;26604;53.596;10.042;2023-05-10T14:24:17;20.50;99.90
15638;DHT22;26604;53.596;10.042;2023-05-10T14:26:44;20.50;99.90
15638;DHT22;26604;53.596;10.042;2023-05-10T14:29:11;20.60;99.90
15638;DHT22;26604;53.596;10.042;2023-05-10T14:31:38;20.60;99.90
15638;DHT22;26604;53.596;10.042;2023-05-10T14:34:04;20.70;99.90
15638;DHT22;26604;53.596;10.042;2023-05-10T14:36:32;20.70;99.90
15638;DHT22;26604;53.596;10.042;2023-05-10T14:39:00;20.80;99.90
15638;DHT22;26604;53.596;10.042;2023-05-10T14:41:27;20.80;99.90
15638;DHT22;26604;53.596;10.042;2023-05-10T14:43:55;20.70;99.90
15638;DHT22;26604;53.596;10.042;2023-05-10T14:46:22;20.60;99.90
15638;DHT22;26604;53.596;10.042;2023-05-10T14:48:49;20.70;99.90
15638;DHT22;26604;53.596;10.042;2023-05-10T14:51:16;20.60;99.90
15638;DHT22;26604;53.596;10.042;2023-05-10T14:53:45;20.50;99.90
15638;DHT22;26604;53.596;10.042;2023-05-10T14:56:13;20.40;99.90
15638;DHT22;26604;53.596;10.042;2023-05-10T14:58:40;20.20;99.90
15638;DHT22;26604;53.596;10.042;2023-05-10T15:01:07;20.00;99.90
15638;DHT22;26604;53.596;10.042;2023-05-10T15:03:34;19.80;99.90
15638;DHT22;26604;53.596;10.042;2023-05-10T15:06:01;19.80;99.90
15638;DHT22;26604;53.596;10.042;2023-05-10T15:08:28;20.00;99.90
15638;DHT22;26604;53.596;10.042;2023-05-10T15:10:55;20.10;99.90
15638;DHT22;26604;53.596;10.042;2023-05-10T15:13:23;20.10;99.90
15638;DHT22;26604;53.596;10.042;2023-05-10T15:15:50;20.10;99.90
15638;DHT22;26604;53.596;10.042;2023-05-10T15:18:17;20.00;99.90
15638;DHT22;26604;53.596;10.042;2023-05-10T15:20:44;19.80;99.90
15638;DHT22;26604;53.596;10.042;2023-05-10T15:23:10;19.70;99.90
15638;DHT22;26604;53.596;10.042;2023-05-10T15:25:37;19.60;99.90